Time;durP1;ratioP1;P1;durP2;ratioP2;P2;SDS_P1;SDS_P2;PMS_P1;PMS_P2;Temp;Humidity;BMP_temperature;BMP_pressure;BME280_temperature;BME280_humidity;BME280_pressure;Samples;Min_cycle;Max_cycle;Signal;HPM_P1;HPM_P2
2021/01/09 00:02:15;;;;;;;24.33;11.43;;;2.00;97.10;;;;;;5026999;28;20030;-73
2021/01/09 00:04:41;;;;;;;27.67;11.93;;;2.00;96.90;;;;;;5021986;28;20388;-73
2021/01/09 00:07:09;;;;;;;27.95;12.60;;;2.00;96.90;;;;;;5024763;28;20029;-74
2021/01/09 00:09:35;;;;;;;26.33;12.02;;;2.00;97.00;;;;;;5036355;28;20033;-73
2021/01/09 00:12:02;;;;;;;23.90;11.35;;;2.00;97.10;;;;;;5033365;28;20505;-74
2021/01/09 00:14:27;;;;;;;28.05;12.30;;;2.00;96.90;;;;;;5032604;28;20049;-73
2021/01/09 00:16:53;;;;;;;29.17;11.98;;;2.00;96.90;;;;;;5029984;28;20468;-73
2021/01/09 00:19:19;;;;;;;25.80;11.80;;;2.00;97.00;;;;;;5014074;28;20032;-73
2021/01/09 00:21:45;;;;;;;29.23;12.65;;;2.00;97.00;;;;;;5026821;28;20405;-73
2021/01/09 00:24:10;;;;;;;27.95;12.32;;;2.00;97.10;;;;;;5026091;28;20796;-73
2021/01/09 00:26:37;;;;;;;30.00;12.45;;;2.00;97.20;;;;;;5035122;28;20401;-74
2021/01/09 00:29:03;;;;;;;22.92;11.75;;;2.00;97.10;;;;;;5030613;28;20032;-74
2021/01/09 00:31:29;;;;;;;30.33;12.73;;;2.00;97.10;;;;;;5036071;28;20113;-74
2021/01/09 00:33:55;;;;;;;32.60;13.65;;;2.00;97.00;;;;;;5015316;28;20116;-74
2021/01/09 00:36:21;;;;;;;29.65;12.85;;;2.00;97.10;;;;;;5014488;28;20101;-73
2021/01/09 00:38:50;;;;;;;31.65;13.68;;;2.00;97.30;;;;;;5024724;28;20029;-74
2021/01/09 00:41:24;;;;;;;26.40;12.48;;;2.00;97.10;;;;;;5024042;28;20041;-74
2021/01/09 00:43:50;;;;;;;29.65;12.77;;;2.00;97.10;;;;;;5018507;28;20029;-74
2021/01/09 00:46:16;;;;;;;30.88;12.75;;;2.00;96.90;;;;;;5026583;28;20022;-73
2021/01/09 00:48:42;;;;;;;29.23;12.95;;;2.00;97.00;;;;;;5013575;28;20028;-73
2021/01/09 00:51:12;;;;;;;30.65;13.07;;;1.90;97.00;;;;;;5031330;28;20104;-74
2021/01/09 00:53:37;;;;;;;30.20;13.30;;;1.90;97.00;;;;;;5030842;28;20585;-74
2021/01/09 00:56:03;;;;;;;29.40;13.15;;;1.90;97.10;;;;;;5013962;28;20108;-74
2021/01/09 00:58:29;;;;;;;30.17;12.80;;;1.90;97.10;;;;;;5028814;28;20509;-74
2021/01/09 01:00:54;;;;;;;29.00;13.23;;;1.90;97.10;;;;;;5036968;28;20037;-74
2021/01/09 01:03:20;;;;;;;28.55;12.70;;;1.90;97.10;;;;;;5017237;28;20034;-73
2021/01/09 01:05:46;;;;;;;27.25;12.98;;;1.90;97.10;;;;;;5025600;28;20029;-74
2021/01/09 01:08:12;;;;;;;28.02;12.70;;;1.90;97.20;;;;;;5030544;28;20474;-74
2021/01/09 01:10:37;;;;;;;23.88;11.40;;;1.90;97.10;;;;;;5029615;28;20543;-74
2021/01/09 01:13:03;;;;;;;26.27;12.20;;;1.90;97.00;;;;;;5013823;28;20401;-74
2021/01/09 01:15:28;;;;;;;28.88;13.15;;;1.90;96.90;;;;;;5036872;28;20040;-73
2021/01/09 01:17:54;;;;;;;27.92;11.93;;;1.90;97.10;;;;;;5033043;28;20029;-73
2021/01/09 01:20:20;;;;;;;30.33;13.18;;;1.90;97.20;;;;;;5015762;28;20029;-74
2021/01/09 01:22:45;;;;;;;25.48;11.45;;;1.90;97.20;;;;;;5034430;28;20036;-74
2021/01/09 01:25:12;;;;;;;25.08;11.57;;;1.90;97.10;;;;;;5023814;28;20081;-73
2021/01/09 01:27:38;;;;;;;26.50;12.45;;;1.90;96.80;;;;;;5029154;28;20392;-74
2021/01/09 01:30:04;;;;;;;22.27;11.25;;;1.90;97.00;;;;;;5017371;28;20029;-73
2021/01/09 01:32:36;;;;;;;23.70;11.25;;;1.90;96.90;;;;;;5030236;28;20036;-74
2021/01/09 01:35:02;;;;;;;26.63;10.82;;;1.90;97.00;;;;;;5027636;28;20109;-73
2021/01/09 01:37:28;;;;;;;24.63;10.98;;;1.90;97.00;;;;;;5029123;28;20033;-74
2021/01/09 01:39:54;;;;;;;20.02;10.52;;;1.90;97.00;;;;;;5027728;28;20037;-74
2021/01/09 01:42:20;;;;;;;19.65;10.13;;;1.90;96.90;;;;;;5029704;28;20103;-74
2021/01/09 01:44:45;;;;;;;21.42;9.52;;;1.90;96.80;;;;;;5030361;28;20033;-74
2021/01/09 01:47:17;;;;;;;21.10;10.35;;;1.90;96.90;;;;;;5021449;28;20528;-74
2021/01/09 01:49:47;;;;;;;20.15;10.00;;;1.90;97.00;;;;;;5036272;28;20039;-73
2021/01/09 01:52:14;;;;;;;22.90;10.40;;;1.90;96.80;;;;;;5029069;28;20092;-73
2021/01/09 01:54:43;;;;;;;23.30;10.85;;;1.90;96.80;;;;;;5034977;28;20029;-74
2021/01/09 01:57:13;;;;;;;21.65;10.25;;;1.90;96.90;;;;;;5011654;28;20501;-74
2021/01/09 01:59:40;;;;;;;21.38;10.23;;;1.90;96.90;;;;;;5031196;28;20091;-74
2021/01/09 02:02:09;;;;;;;18.95;9.60;;;1.90;96.90;;;;;;5034283;28;20086;-74
2021/01/09 02:04:35;;;;;;;27.70;10.90;;;1.90;96.80;;;;;;5034336;28;20025;-74
2021/01/09 02:07:22;;;;;;;20.95;9.80;;;1.90;96.90;;;;;;5034914;28;20028;-74
2021/01/09 02:09:50;;;;;;;23.25;11.15;;;1.90;96.90;;;;;;5049132;28;20116;-74
2021/01/09 02:12:32;;;;;;;22.05;10.38;;;1.90;96.90;;;;;;5036354;28;20082;-74
2021/01/09 02:15:00;;;;;;;21.67;9.60;;;1.90;97.00;;;;;;5032946;28;20108;-73
2021/01/09 02:17:27;;;;;;;23.70;10.75;;;1.90;97.00;;;;;;5033887;28;20076;-73
2021/01/09 02:19:58;;;;;;;23.33;11.65;;;1.90;96.90;;;;;;5032665;28;20144;-73
2021/01/09 02:22:25;;;;;;;23.35;10.18;;;1.90;97.00;;;;;;5030120;28;20025;-72
2021/01/09 02:24:51;;;;;;;20.90;10.75;;;1.90;96.90;;;;;;5035307;28;20021;-73
2021/01/09 02:27:17;;;;;;;25.25;11.13;;;1.90;96.80;;;;;;5051970;28;20043;-72
2021/01/09 02:30:11;;;;;;;25.05;11.20;;;1.90;96.90;;;;;;5015518;28;20481;-72
2021/01/09 02:33:01;;;;;;;24.27;11.52;;;1.90;97.00;;;;;;5033997;28;20021;-72
2021/01/09 02:35:28;;;;;;;21.13;10.35;;;1.90;96.90;;;;;;5035395;28;20030;-72
2021/01/09 02:37:54;;;;;;;25.27;11.63;;;1.90;97.00;;;;;;5032424;28;20040;-72
2021/01/09 02:40:20;;;;;;;21.98;10.52;;;1.90;97.00;;;;;;5015685;28;20033;-72
2021/01/09 02:42:46;;;;;;;26.27;11.07;;;1.90;96.90;;;;;;5035994;28;20025;-72
2021/01/09 02:45:15;;;;;;;25.85;11.48;;;2.00;96.70;;;;;;5031103;28;20021;-72
2021/01/09 02:47:41;;;;;;;23.80;11.60;;;1.90;96.70;;;;;;5033149;28;20124;-72
2021/01/09 02:50:11;;;;;;;26.25;11.68;;;1.90;96.70;;;;;;5031121;28;20512;-72
2021/01/09 02:52:41;;;;;;;24.77;11.00;;;1.90;96.80;;;;;;5031489;28;20428;-72
2021/01/09 02:55:08;;;;;;;25.08;10.95;;;1.90;96.80;;;;;;5030883;28;20112;-72
2021/01/09 02:57:34;;;;;;;26.45;13.15;;;1.90;96.90;;;;;;5019107;28;20052;-72
2021/01/09 03:00:00;;;;;;;29.95;12.60;;;1.90;97.00;;;;;;5030620;28;20033;-72
2021/01/09 03:02:25;;;;;;;25.83;12.77;;;1.90;96.90;;;;;;5038234;28;20055;-72
2021/01/09 03:04:51;;;;;;;30.20;13.95;;;1.90;97.00;;;;;;5014085;28;20410;-72
2021/01/09 03:07:17;;;;;;;27.33;12.50;;;1.90;97.10;;;;;;5036308;28;20029;-72
2021/01/09 03:09:42;;;;;;;28.88;13.40;;;1.90;97.00;;;;;;5014517;28;20029;-72
2021/01/09 03:12:11;;;;;;;26.02;11.80;;;1.90;97.10;;;;;;5030735;28;20033;-72
2021/01/09 03:14:37;;;;;;;24.05;11.70;;;1.90;97.10;;;;;;5032952;28;20036;-72
2021/01/09 03:17:03;;;;;;;23.15;10.73;;;1.90;97.10;;;;;;5021479;28;20029;-72
2021/01/09 03:19:28;;;;;;;27.25;12.32;;;1.90;97.00;;;;;;5019579;28;20029;-72
2021/01/09 03:21:54;;;;;;;25.30;11.30;;;1.90;96.90;;;;;;5033323;28;20028;-72
2021/01/09 03:24:21;;;;;;;27.35;11.90;;;1.90;96.80;;;;;;5037580;28;20033;-72
2021/01/09 03:26:46;;;;;;;28.25;12.20;;;1.90;96.90;;;;;;5036724;28;20033;-72
2021/01/09 03:29:12;;;;;;;24.38;11.30;;;1.90;96.90;;;;;;5033659;28;20033;-72
2021/01/09 03:31:38;;;;;;;21.90;10.90;;;1.90;96.90;;;;;;5035765;28;20029;-72
2021/01/09 03:34:03;;;;;;;23.05;10.75;;;2.00;96.90;;;;;;5036600;28;20441;-72
2021/01/09 03:36:29;;;;;;;24.90;11.63;;;2.00;96.80;;;;;;5034850;28;20614;-72
2021/01/09 03:38:54;;;;;;;25.25;11.75;;;1.90;96.90;;;;;;5019850;28;20392;-72
2021/01/09 03:41:20;;;;;;;27.25;12.38;;;1.90;97.00;;;;;;5035899;28;20504;-72
2021/01/09 03:43:46;;;;;;;29.10;12.57;;;1.90;97.00;;;;;;5037991;28;20023;-72
2021/01/09 03:46:11;;;;;;;24.33;12.13;;;1.90;97.00;;;;;;5033284;28;20024;-72
2021/01/09 03:48:37;;;;;;;24.80;12.05;;;1.90;97.10;;;;;;5014722;28;20033;-72
2021/01/09 03:51:03;;;;;;;28.15;12.23;;;1.90;97.00;;;;;;5035799;28;20025;-72
2021/01/09 03:53:28;;;;;;;23.30;11.80;;;1.90;97.00;;;;;;5035936;28;20033;-72
2021/01/09 03:55:54;;;;;;;25.50;11.85;;;1.90;97.00;;;;;;5035992;28;20029;-72
2021/01/09 03:58:20;;;;;;;26.17;11.63;;;1.90;96.80;;;;;;5037228;28;20385;-72
2021/01/09 04:00:45;;;;;;;25.30;12.05;;;1.90;96.90;;;;;;5039681;28;20044;-72
2021/01/09 04:03:11;;;;;;;24.90;12.25;;;1.90;96.90;;;;;;5038828;28;20061;-72
2021/01/09 04:05:37;;;;;;;24.70;11.68;;;1.90;96.80;;;;;;5038176;28;20454;-72
2021/01/09 04:08:03;;;;;;;25.40;12.18;;;1.90;96.80;;;;;;5040593;28;20026;-72
2021/01/09 04:10:30;;;;;;;23.38;11.13;;;1.90;96.80;;;;;;5040937;28;20033;-72
2021/01/09 04:12:55;;;;;;;27.45;13.32;;;1.90;96.70;;;;;;5038584;28;20515;-72
2021/01/09 04:15:21;;;;;;;25.30;11.95;;;1.90;96.90;;;;;;5038787;28;20029;-72
2021/01/09 04:17:46;;;;;;;26.33;12.23;;;1.90;96.90;;;;;;5039418;28;20036;-73
2021/01/09 04:20:12;;;;;;;23.85;11.30;;;1.90;96.90;;;;;;5033460;28;20064;-72
2021/01/09 04:22:38;;;;;;;23.45;11.38;;;1.90;96.80;;;;;;5040252;28;20032;-72
2021/01/09 04:25:04;;;;;;;24.05;11.60;;;1.90;96.90;;;;;;5020958;28;20388;-72
2021/01/09 04:27:30;;;;;;;26.48;12.05;;;1.90;97.00;;;;;;5037691;28;20066;-72
2021/01/09 04:29:55;;;;;;;27.15;12.98;;;1.90;96.80;;;;;;5038358;28;20036;-72
2021/01/09 04:32:21;;;;;;;24.00;12.05;;;1.90;97.00;;;;;;5038735;28;20037;-72
2021/01/09 04:34:48;;;;;;;30.25;13.88;;;1.90;97.10;;;;;;5037230;28;20033;-72
2021/01/09 04:37:15;;;;;;;24.83;13.07;;;1.80;97.20;;;;;;5037477;28;20025;-72
2021/01/09 04:39:41;;;;;;;25.77;11.65;;;1.80;97.20;;;;;;5036997;28;20606;-72
2021/01/09 04:42:07;;;;;;;22.25;11.23;;;1.90;97.00;;;;;;5039405;28;20095;-72
2021/01/09 04:44:33;;;;;;;25.70;12.80;;;1.90;96.90;;;;;;5038088;28;20488;-71
2021/01/09 04:47:02;;;;;;;27.02;12.75;;;1.90;96.70;;;;;;5036761;28;20026;-72
2021/01/09 04:49:31;;;;;;;25.40;12.90;;;1.90;96.80;;;;;;5037843;28;20506;-72
2021/01/09 04:51:57;;;;;;;28.30;13.07;;;1.90;96.80;;;;;;5037410;28;20079;-72
2021/01/09 04:54:25;;;;;;;26.90;12.82;;;1.90;96.80;;;;;;5037457;28;20488;-72
2021/01/09 04:56:53;;;;;;;29.50;13.57;;;1.80;96.90;;;;;;5036541;28;20538;-72
2021/01/09 04:59:20;;;;;;;31.77;13.05;;;1.80;96.90;;;;;;5038406;28;20102;-72
2021/01/09 05:01:47;;;;;;;26.65;12.73;;;1.80;97.00;;;;;;5030880;28;20029;-72
2021/01/09 05:04:14;;;;;;;26.17;12.60;;;1.80;97.10;;;;;;5038549;28;20025;-72
2021/01/09 05:06:42;;;;;;;27.38;12.65;;;1.80;96.90;;;;;;5040613;28;20028;-72
2021/01/09 05:09:09;;;;;;;33.28;14.32;;;1.80;96.80;;;;;;5037471;28;20029;-72
2021/01/09 05:11:35;;;;;;;33.45;14.05;;;1.80;97.00;;;;;;5018707;28;20029;-72
2021/01/09 05:14:04;;;;;;;30.35;12.80;;;1.80;96.80;;;;;;5021526;28;20028;-72
2021/01/09 05:16:30;;;;;;;31.20;13.30;;;1.80;96.90;;;;;;5039510;28;20029;-72
2021/01/09 05:18:56;;;;;;;28.90;13.43;;;1.80;96.80;;;;;;5037131;28;20025;-72
2021/01/09 05:21:27;;;;;;;33.90;14.23;;;1.80;96.90;;;;;;5036580;28;20033;-72
2021/01/09 05:23:55;;;;;;;35.05;15.27;;;1.80;96.90;;;;;;5036258;28;20029;-72
2021/01/09 05:26:22;;;;;;;29.73;13.30;;;1.80;97.00;;;;;;5020465;28;20040;-72
2021/01/09 05:28:50;;;;;;;26.95;12.02;;;1.80;96.90;;;;;;5039289;28;20033;-72
2021/01/09 05:31:17;;;;;;;25.67;13.40;;;1.80;96.80;;;;;;5043167;28;20041;-72
2021/01/09 05:33:44;;;;;;;26.83;12.93;;;1.80;97.00;;;;;;5039545;28;20057;-72
2021/01/09 05:36:10;;;;;;;25.02;11.45;;;1.80;97.10;;;;;;5037440;28;20029;-72
2021/01/09 05:38:39;;;;;;;25.80;12.80;;;1.80;97.10;;;;;;5034471;28;20031;-72
2021/01/09 05:41:10;;;;;;;27.80;13.07;;;1.80;96.90;;;;;;5039915;28;20440;-72
2021/01/09 05:43:36;;;;;;;25.15;12.02;;;1.80;96.90;;;;;;5037441;28;20034;-72
2021/01/09 05:46:04;;;;;;;27.60;11.35;;;1.80;96.80;;;;;;5035853;28;20021;-72
2021/01/09 05:48:31;;;;;;;23.80;11.40;;;1.80;96.80;;;;;;5037303;28;20033;-72
2021/01/09 05:50:59;;;;;;;23.90;12.07;;;1.80;96.70;;;;;;5036835;28;20116;-72
2021/01/09 05:53:47;;;;;;;26.05;12.60;;;1.80;96.80;;;;;;5036099;28;20033;-72
2021/01/09 05:56:16;;;;;;;26.80;12.98;;;1.80;96.70;;;;;;5039286;28;20036;-72
2021/01/09 05:58:42;;;;;;;29.88;12.45;;;1.80;96.80;;;;;;5035386;28;20040;-72
2021/01/09 06:01:14;;;;;;;26.45;12.55;;;1.80;96.90;;;;;;5035433;28;20045;-72
2021/01/09 06:03:56;;;;;;;26.48;12.55;;;1.80;96.80;;;;;;5036968;28;20433;-72
2021/01/09 06:06:25;;;;;;;26.10;12.15;;;1.80;96.80;;;;;;5037116;28;20503;-72
2021/01/09 06:09:09;;;;;;;25.35;12.05;;;1.80;96.80;;;;;;5038260;28;20036;-72
2021/01/09 06:11:41;;;;;;;26.13;12.95;;;1.80;96.80;;;;;;5038881;28;20031;-72
2021/01/09 06:14:12;;;;;;;24.23;11.88;;;1.80;96.60;;;;;;5040295;28;20079;-72
2021/01/09 06:16:42;;;;;;;22.75;12.73;;;1.80;96.30;;;;;;5036544;28;20036;-72
2021/01/09 06:19:10;;;;;;;24.60;10.85;;;1.80;96.30;;;;;;5035753;28;20043;-72
2021/01/09 06:21:36;;;;;;;23.95;11.98;;;1.80;96.50;;;;;;5036919;28;20450;-72
2021/01/09 06:24:04;;;;;;;26.23;11.85;;;1.80;96.60;;;;;;5034678;28;20108;-72
2021/01/09 06:26:31;;;;;;;29.17;13.35;;;1.80;96.80;;;;;;5037010;28;20075;-72
2021/01/09 06:28:59;;;;;;;25.80;11.48;;;1.80;96.80;;;;;;5037478;28;20056;-72
2021/01/09 06:31:29;;;;;;;29.10;13.25;;;1.70;96.90;;;;;;5018682;28;20102;-72
2021/01/09 06:34:00;;;;;;;30.10;12.80;;;1.70;96.70;;;;;;5037093;28;20025;-72
2021/01/09 06:36:26;;;;;;;33.47;12.70;;;1.70;96.70;;;;;;5036156;28;20056;-72
2021/01/09 06:38:57;;;;;;;27.50;11.70;;;1.70;96.70;;;;;;5017263;28;20160;-72
2021/01/09 06:41:23;;;;;;;;;;;1.70;96.70;;;;;;5035586;28;20047;-72
2021/01/09 06:43:54;;;;;;;27.25;11.40;;;1.70;96.70;;;;;;5034843;28;19909;-72
2021/01/09 06:46:39;;;;;;;26.17;11.82;;;1.70;96.50;;;;;;5037887;28;20065;-72
2021/01/09 06:49:04;;;;;;;24.17;10.95;;;1.70;96.60;;;;;;5034750;28;20030;-72
2021/01/09 06:51:39;;;;;;;27.98;13.25;;;1.70;96.90;;;;;;5019441;28;20033;-72
2021/01/09 06:54:26;;;;;;;31.98;13.63;;;1.70;96.70;;;;;;5034392;28;20033;-72
2021/01/09 06:57:09;;;;;;;27.15;12.85;;;1.70;96.80;;;;;;5036796;28;20184;-72
2021/01/09 06:59:37;;;;;;;24.38;11.52;;;1.70;96.70;;;;;;5034403;28;20044;-72
2021/01/09 07:02:21;;;;;;;28.10;13.18;;;1.70;96.60;;;;;;5031987;28;20508;-72
2021/01/09 07:05:01;;;;;;;28.65;12.50;;;1.70;96.70;;;;;;5032949;28;20055;-72
2021/01/09 07:07:29;;;;;;;28.40;12.23;;;1.70;96.70;;;;;;5037914;28;20029;-72
2021/01/09 07:10:11;;;;;;;33.22;14.52;;;1.70;96.80;;;;;;5031779;28;20025;-72
2021/01/09 07:12:40;;;;;;;38.15;14.57;;;1.70;96.80;;;;;;5033867;28;20104;-72
2021/01/09 07:15:08;;;;;;;28.40;12.65;;;1.60;96.90;;;;;;5036959;28;20021;-72
2021/01/09 07:17:40;;;;;;;30.50;13.35;;;1.70;96.70;;;;;;5035818;28;20030;-72
2021/01/09 07:20:11;;;;;;;29.70;13.75;;;1.60;96.80;;;;;;5018976;28;20032;-73
2021/01/09 07:22:39;;;;;;;29.00;12.63;;;1.70;96.80;;;;;;5036451;28;20456;-73
2021/01/09 07:25:08;;;;;;;31.17;13.20;;;1.70;96.70;;;;;;5035907;28;20120;-72
2021/01/09 07:27:40;;;;;;;35.35;13.98;;;1.70;96.60;;;;;;5017912;28;20319;-73
2021/01/09 07:30:17;;;;;;;28.13;13.43;;;1.70;96.40;;;;;;5029895;28;20443;-74
2021/01/09 07:32:51;;;;;;;29.98;13.45;;;1.70;96.60;;;;;;5018634;28;20496;-73
2021/01/09 07:35:26;;;;;;;32.25;13.77;;;1.70;96.70;;;;;;5038892;28;20119;-73
2021/01/09 07:37:59;;;;;;;30.35;12.73;;;1.70;96.70;;;;;;5039809;28;20071;-73
2021/01/09 07:40:27;;;;;;;26.95;12.90;;;1.70;96.70;;;;;;5040872;28;20021;-73
2021/01/09 07:42:53;;;;;;;30.45;13.73;;;1.70;96.70;;;;;;5040460;28;20025;-73
2021/01/09 07:45:21;;;;;;;28.45;12.40;;;1.70;96.80;;;;;;5040555;28;20026;-73
2021/01/09 07:47:49;;;;;;;32.03;13.60;;;1.70;96.60;;;;;;5036055;28;20497;-73
2021/01/09 07:50:17;;;;;;;27.00;12.23;;;1.70;96.50;;;;;;5040557;28;20484;-73
2021/01/09 07:52:44;;;;;;;31.45;14.15;;;1.70;96.50;;;;;;5037273;28;20068;-73
2021/01/09 07:55:15;;;;;;;33.72;14.32;;;1.80;96.60;;;;;;5021151;28;20025;-73
2021/01/09 07:57:41;;;;;;;31.05;13.38;;;1.70;96.80;;;;;;5042269;28;20033;-73
2021/01/09 08:00:09;;;;;;;29.58;12.80;;;1.70;96.80;;;;;;5050164;28;20040;-73
2021/01/09 08:02:37;;;;;;;25.75;12.60;;;1.80;96.70;;;;;;5021778;28;20431;-73
2021/01/09 08:05:09;;;;;;;27.15;13.43;;;1.80;96.40;;;;;;5033091;28;20030;-73
2021/01/09 08:07:39;;;;;;;31.52;12.55;;;1.80;96.40;;;;;;5047276;28;20022;-73
2021/01/09 08:10:34;;;;;;;31.42;12.77;;;1.70;96.60;;;;;;5039524;28;20096;-73
2021/01/09 08:13:01;;;;;;;29.85;13.10;;;1.70;96.80;;;;;;5038105;28;20037;-74
2021/01/09 08:15:30;;;;;;;35.38;14.35;;;1.70;96.60;;;;;;5033225;28;20026;-74
2021/01/09 08:17:59;;;;;;;34.72;13.52;;;1.70;96.70;;;;;;5032986;28;20396;-73
2021/01/09 08:20:25;;;;;;;39.13;14.02;;;1.70;96.90;;;;;;5037986;28;20043;-74
2021/01/09 08:22:55;;;;;;;32.92;13.82;;;1.70;97.10;;;;;;5072997;22;20528;-74
2021/01/09 08:25:22;;;;;;;34.47;13.25;;;1.70;97.00;;;;;;5056321;28;20570;-73
2021/01/09 08:27:52;;;;;;;34.58;13.05;;;1.70;97.00;;;;;;5054479;28;20037;-73
2021/01/09 08:30:29;;;;;;;33.10;14.32;;;1.70;97.10;;;;;;5056092;28;20382;-73
2021/01/09 08:33:08;;;;;;;37.00;13.93;;;1.70;97.20;;;;;;5089098;28;20028;-74
2021/01/09 08:35:52;;;;;;;30.83;13.35;;;1.70;97.20;;;;;;5079280;28;20024;-74
2021/01/09 08:38:18;;;;;;;33.35;13.45;;;1.70;97.20;;;;;;5065545;28;20031;-74
2021/01/09 08:40:44;;;;;;;35.10;14.90;;;1.70;97.10;;;;;;5069245;28;20036;-74
2021/01/09 08:43:12;;;;;;;36.53;13.52;;;1.70;97.10;;;;;;5078830;28;20070;-73
2021/01/09 08:45:41;;;;;;;34.38;13.95;;;1.70;97.20;;;;;;5077402;28;20028;-75
2021/01/09 08:48:11;;;;;;;33.53;13.52;;;1.70;97.00;;;;;;5078159;28;20104;-74
2021/01/09 08:50:44;;;;;;;36.72;14.63;;;1.70;97.00;;;;;;5078717;28;21599;-74
2021/01/09 08:53:11;;;;;;;39.33;14.45;;;1.70;97.10;;;;;;5068563;28;20021;-74
2021/01/09 08:55:38;;;;;;;37.00;14.40;;;1.70;97.10;;;;;;5079602;28;20034;-74
2021/01/09 08:58:11;;;;;;;30.08;13.30;;;1.70;96.90;;;;;;5066637;28;20028;-73
2021/01/09 09:00:37;;;;;;;31.90;13.00;;;1.70;96.70;;;;;;5082777;28;20119;-73
2021/01/09 09:03:06;;;;;;;27.30;12.05;;;1.70;96.80;;;;;;5056827;28;20113;-73
2021/01/09 09:05:31;;;;;;;34.15;13.63;;;1.70;96.70;;;;;;5059623;28;20108;-73
2021/01/09 09:08:01;;;;;;;27.52;12.35;;;1.80;96.50;;;;;;5076464;28;20135;-75
2021/01/09 09:10:30;;;;;;;29.70;12.15;;;1.80;96.40;;;;;;5072773;28;20100;-74
2021/01/09 09:13:14;;;;;;;30.00;12.40;;;1.80;96.60;;;;;;5077049;28;20565;-74
2021/01/09 09:15:40;;;;;;;32.40;13.05;;;1.80;96.60;;;;;;5076410;28;20043;-74
2021/01/09 09:18:10;;;;;;;26.98;12.30;;;1.80;96.60;;;;;;5070821;28;20033;-74
2021/01/09 09:20:36;;;;;;;30.65;12.73;;;1.80;96.70;;;;;;5070026;28;20028;-74
2021/01/09 09:23:22;;;;;;;29.80;11.75;;;1.80;96.60;;;;;;5067806;28;20052;-74
2021/01/09 09:26:13;;;;;;;32.60;13.10;;;1.80;96.70;;;;;;5062601;28;20048;-72
2021/01/09 09:28:53;;;;;;;25.73;11.60;;;1.80;96.80;;;;;;5069371;28;20030;-72
2021/01/09 09:31:29;;;;;;;26.90;12.05;;;1.90;96.50;;;;;;5064762;28;20033;-73
2021/01/09 09:34:12;;;;;;;30.15;13.30;;;1.90;96.60;;;;;;5053277;28;20477;-75
2021/01/09 09:37:00;;;;;;;26.95;12.18;;;1.90;96.60;;;;;;5062252;28;20020;-74
2021/01/09 09:39:26;;;;;;;25.17;11.05;;;1.90;96.40;;;;;;5056993;28;20432;-74
2021/01/09 09:42:00;;;;;;;27.30;12.75;;;1.90;96.40;;;;;;5065919;28;20132;-73
2021/01/09 09:44:35;;;;;;;23.15;11.15;;;1.90;96.40;;;;;;5067511;28;20182;-73
2021/01/09 09:47:02;;;;;;;32.28;12.05;;;1.90;96.60;;;;;;5051785;28;20067;-74
2021/01/09 09:49:28;;;;;;;25.13;10.93;;;1.90;96.50;;;;;;5069956;28;20619;-73
2021/01/09 09:51:54;;;;;;;30.67;11.48;;;1.90;96.40;;;;;;5072439;28;20500;-74
2021/01/09 09:54:30;;;;;;;26.35;10.73;;;1.90;96.40;;;;;;5070665;28;20570;-74
2021/01/09 09:56:57;;;;;;;25.10;10.95;;;1.90;96.60;;;;;;5067273;28;20107;-74
2021/01/09 09:59:30;;;;;;;24.98;10.77;;;1.90;95.90;;;;;;5052907;28;20039;-73
2021/01/09 10:02:00;;;;;;;25.00;11.32;;;1.90;95.70;;;;;;5069656;28;20032;-74
2021/01/09 10:04:27;;;;;;;26.88;10.77;;;1.90;96.10;;;;;;5075453;28;20028;-73
2021/01/09 10:06:56;;;;;;;20.92;9.90;;;1.90;96.30;;;;;;5071554;28;20054;-74
2021/01/09 10:09:23;;;;;;;22.50;10.50;;;1.90;95.70;;;;;;5072206;28;20027;-72
2021/01/09 10:11:51;;;;;;;25.80;11.60;;;1.90;96.00;;;;;;5051136;28;20024;-77
2021/01/09 10:14:17;;;;;;;27.48;11.07;;;1.80;96.40;;;;;;5067708;28;20132;-74
2021/01/09 10:16:43;;;;;;;26.30;11.68;;;1.80;96.40;;;;;;5069800;28;20177;-76
2021/01/09 10:19:13;;;;;;;25.13;11.98;;;1.90;96.50;;;;;;5067826;28;20028;-78
2021/01/09 10:21:39;;;;;;;23.55;11.25;;;1.90;96.40;;;;;;5052355;28;578775;-76
2021/01/09 10:24:05;;;;;;;28.63;12.35;;;1.80;96.50;;;;;;5075929;28;20153;-74
2021/01/09 10:26:33;;;;;;;24.10;11.00;;;1.80;96.60;;;;;;5078414;28;20032;-78
2021/01/09 10:29:01;;;;;;;23.13;10.68;;;1.80;96.40;;;;;;5054451;28;20032;-73
2021/01/09 10:31:33;;;;;;;24.02;11.05;;;1.90;96.10;;;;;;5071320;28;20017;-76
2021/01/09 10:34:00;;;;;;;24.45;11.27;;;1.80;96.30;;;;;;5062140;28;20021;-76
2021/01/09 10:36:30;;;;;;;23.08;10.75;;;1.80;96.40;;;;;;5067956;28;20032;-77
2021/01/09 10:38:57;;;;;;;22.38;10.18;;;1.80;96.40;;;;;;5074300;28;20051;-75
2021/01/09 10:41:23;;;;;;;25.35;10.98;;;1.80;96.40;;;;;;5071782;28;20061;-80
2021/01/09 10:43:49;;;;;;;22.50;10.20;;;1.80;96.50;;;;;;5058564;28;20024;-73
2021/01/09 10:46:20;;;;;;;20.02;10.15;;;1.80;96.70;;;;;;5066951;28;20057;-75
2021/01/09 10:48:45;;;;;;;26.02;10.18;;;1.80;96.40;;;;;;5078284;28;20093;-74
2021/01/09 10:51:16;;;;;;;24.25;9.93;;;1.80;96.50;;;;;;5071173;28;20454;-75
2021/01/09 10:53:41;;;;;;;22.80;9.35;;;1.80;96.50;;;;;;5076383;28;20141;-73
2021/01/09 10:56:07;;;;;;;22.70;10.25;;;1.80;96.20;;;;;;5073057;28;20506;-73
2021/01/09 10:58:33;;;;;;;24.30;11.32;;;1.90;96.30;;;;;;5059401;28;20395;-74
2021/01/09 11:00:59;;;;;;;26.00;11.20;;;1.90;96.20;;;;;;5055289;28;20332;-74
2021/01/09 11:03:24;;;;;;;20.75;10.10;;;1.90;96.20;;;;;;5077589;28;20388;-78
2021/01/09 11:05:50;;;;;;;20.20;9.70;;;1.90;96.20;;;;;;5057306;28;20039;-73
2021/01/09 11:08:16;;;;;;;23.52;10.15;;;1.90;96.10;;;;;;5078123;28;20052;-72
2021/01/09 11:10:41;;;;;;;22.40;9.68;;;2.00;96.00;;;;;;5077373;28;20035;-80
2021/01/09 11:13:07;;;;;;;18.90;9.38;;;2.00;95.50;;;;;;5061347;28;20024;-73
2021/01/09 11:15:33;;;;;;;22.77;9.93;;;2.00;95.70;;;;;;5071564;28;20025;-73
2021/01/09 11:17:58;;;;;;;21.00;10.18;;;2.00;95.80;;;;;;5077431;28;20037;-72
2021/01/09 11:20:24;;;;;;;25.55;11.23;;;2.10;96.30;;;;;;5075636;28;20040;-72
2021/01/09 11:22:50;;;;;;;22.25;10.18;;;2.20;96.00;;;;;;5077578;28;20300;-72
2021/01/09 11:25:16;;;;;;;24.77;10.35;;;2.10;95.80;;;;;;5070928;28;20037;-76
2021/01/09 11:27:41;;;;;;;25.85;12.00;;;2.20;95.60;;;;;;5057903;28;20032;-75
2021/01/09 11:30:08;;;;;;;23.33;10.98;;;2.20;95.60;;;;;;5056838;28;20024;-74
2021/01/09 11:32:33;;;;;;;29.15;13.05;;;2.20;95.80;;;;;;5059800;28;20078;-74
2021/01/09 11:34:59;;;;;;;30.08;11.77;;;2.20;95.40;;;;;;5058659;28;20473;-74
2021/01/09 11:37:25;;;;;;;25.63;11.73;;;2.20;95.60;;;;;;5072618;28;20047;-74
2021/01/09 11:39:54;;;;;;;25.27;11.85;;;2.20;95.80;;;;;;5075578;28;20111;-75
2021/01/09 11:42:23;;;;;;;27.95;12.25;;;2.20;95.70;;;;;;5059966;28;20059;-75
2021/01/09 11:44:49;;;;;;;33.70;13.63;;;2.10;95.70;;;;;;5071323;28;20017;-76
2021/01/09 11:47:15;;;;;;;27.05;11.77;;;2.20;95.70;;;;;;5046779;28;20408;-75
2021/01/09 11:49:41;;;;;;;31.50;12.40;;;2.20;95.60;;;;;;5070367;28;20020;-75
2021/01/09 11:52:07;;;;;;;34.28;13.60;;;2.20;95.80;;;;;;5074638;28;20154;-75
2021/01/09 11:54:33;;;;;;;32.30;14.63;;;2.20;95.90;;;;;;5068497;28;20543;-74
2021/01/09 11:57:00;;;;;;;34.63;13.20;;;2.20;95.90;;;;;;5045952;28;20119;-81
2021/01/09 11:59:26;;;;;;;25.27;12.18;;;2.20;95.70;;;;;;5077582;28;20112;-79
2021/01/09 12:01:52;;;;;;;28.45;12.13;;;2.20;95.90;;;;;;5056472;28;20055;-75
2021/01/09 12:04:17;;;;;;;26.88;12.00;;;2.20;95.90;;;;;;5048226;28;20016;-77
2021/01/09 12:06:43;;;;;;;25.90;12.25;;;2.10;95.80;;;;;;5050740;28;20032;-74
2021/01/09 12:09:09;;;;;;;26.30;12.60;;;2.20;95.80;;;;;;5070071;28;20029;-76
2021/01/09 12:11:35;;;;;;;29.80;12.25;;;2.20;95.90;;;;;;5073761;28;20037;-76
2021/01/09 12:14:01;;;;;;;21.75;11.23;;;2.20;95.80;;;;;;5056167;28;20483;-76
2021/01/09 12:16:30;;;;;;;25.38;12.02;;;2.20;95.70;;;;;;5071144;28;20083;-77
2021/01/09 12:18:57;;;;;;;25.52;11.23;;;2.30;95.00;;;;;;5060610;28;20052;-77
2021/01/09 12:21:23;;;;;;;25.05;11.10;;;2.30;95.40;;;;;;5077619;28;20089;-77
2021/01/09 12:23:49;;;;;;;23.02;10.93;;;2.30;95.20;;;;;;5077236;28;20027;-76
2021/01/09 12:26:19;;;;;;;25.67;12.10;;;2.30;95.30;;;;;;5078739;28;20013;-76
2021/01/09 12:28:45;;;;;;;22.35;11.35;;;2.30;95.40;;;;;;5061210;28;20028;-76
2021/01/09 12:31:12;;;;;;;20.52;10.38;;;2.30;95.10;;;;;;5076516;28;20047;-77
2021/01/09 12:33:38;;;;;;;20.55;10.07;;;2.30;95.10;;;;;;5078012;28;20032;-75
2021/01/09 12:36:04;;;;;;;22.75;11.20;;;2.30;95.10;;;;;;5063203;28;20055;-76
2021/01/09 12:38:30;;;;;;;29.27;12.80;;;2.40;95.10;;;;;;5063153;28;20021;-74
2021/01/09 12:40:55;;;;;;;24.58;10.43;;;2.40;94.90;;;;;;5080253;28;20433;-76
2021/01/09 12:43:21;;;;;;;23.23;11.05;;;2.40;95.10;;;;;;5063949;28;20051;-75
2021/01/09 12:45:46;;;;;;;26.75;11.88;;;2.30;95.00;;;;;;5081041;28;20019;-76